Time;durP1;ratioP1;P1;durP2;ratioP2;P2;SDS_P1;SDS_P2;PMS_P1;PMS_P2;Temp;Humidity;BMP_temperature;BMP_pressure;BME280_temperature;BME280_humidity;BME280_pressure;Samples;Min_cycle;Max_cycle;Signal;HPM_P1;HPM_P2
2021/05/17 00:00:51;;;;;;;38.08;19.52;;;8.10;99.90;;;;;;5097045;28;20179;-68
2021/05/17 00:03:18;;;;;;;38.85;18.83;;;8.10;99.90;;;;;;5095898;28;20035;-68
2021/05/17 00:05:44;;;;;;;38.20;19.15;;;8.00;99.90;;;;;;5097032;28;20058;-68
2021/05/17 00:08:10;;;;;;;35.95;17.83;;;8.00;99.90;;;;;;5095660;28;20024;-68
2021/05/17 00:10:36;;;;;;;35.25;18.25;;;7.90;99.90;;;;;;5096679;28;20094;-68
2021/05/17 00:13:03;;;;;;;37.38;19.20;;;7.90;99.90;;;;;;5096985;28;20031;-68
2021/05/17 00:15:29;;;;;;;37.03;18.70;;;7.90;99.90;;;;;;5096956;28;20042;-68
2021/05/17 00:17:55;;;;;;;30.65;17.25;;;7.90;99.90;;;;;;5096848;28;20073;-68
2021/05/17 00:20:23;;;;;;;36.38;18.70;;;7.90;99.90;;;;;;5096567;28;20419;-68
2021/05/17 00:22:49;;;;;;;34.58;17.17;;;7.90;99.90;;;;;;5096802;28;20073;-68
2021/05/17 00:25:15;;;;;;;34.42;18.30;;;8.00;99.90;;;;;;5096768;28;20369;-68
2021/05/17 00:27:42;;;;;;;32.80;17.83;;;8.00;99.90;;;;;;5094912;28;20032;-68
2021/05/17 00:30:08;;;;;;;33.80;17.33;;;7.90;99.90;;;;;;5096285;28;20063;-68
2021/05/17 00:32:35;;;;;;;31.92;18.73;;;7.90;99.90;;;;;;5096084;28;20095;-68
2021/05/17 00:35:01;;;;;;;32.92;17.40;;;7.90;99.90;;;;;;5095989;28;20197;-68
2021/05/17 00:37:26;;;;;;;29.02;16.90;;;7.90;99.90;;;;;;5096232;28;20039;-68
2021/05/17 00:39:52;;;;;;;31.33;16.50;;;7.80;99.90;;;;;;5095902;28;20473;-68
2021/05/17 00:42:19;;;;;;;23.55;14.63;;;7.80;99.90;;;;;;5096169;28;20035;-68
2021/05/17 00:44:44;;;;;;;23.67;14.50;;;7.80;99.90;;;;;;5096408;28;20026;-68
2021/05/17 00:47:13;;;;;;;25.73;14.15;;;7.80;99.90;;;;;;5095806;28;20103;-68
2021/05/17 00:49:41;;;;;;;24.45;14.55;;;7.80;99.90;;;;;;5095655;28;20048;-68
2021/05/17 00:52:08;;;;;;;27.67;15.75;;;7.80;99.90;;;;;;5095031;28;20078;-68
2021/05/17 00:54:34;;;;;;;23.88;14.45;;;7.80;99.90;;;;;;5096177;28;20047;-68
2021/05/17 00:57:00;;;;;;;22.92;13.93;;;7.70;99.90;;;;;;5096186;28;20500;-68
2021/05/17 00:59:26;;;;;;;22.98;14.05;;;7.70;99.90;;;;;;5096109;28;20024;-68
2021/05/17 01:01:52;;;;;;;19.85;13.07;;;7.70;99.90;;;;;;5095695;28;20435;-68
2021/05/17 01:04:17;;;;;;;22.42;13.73;;;7.70;99.90;;;;;;5094158;28;20028;-68
2021/05/17 01:06:46;;;;;;;22.30;13.10;;;7.70;99.90;;;;;;5095953;28;20031;-68
2021/05/17 01:09:13;;;;;;;19.30;12.05;;;7.70;99.90;;;;;;5095306;28;20020;-68
2021/05/17 01:11:39;;;;;;;22.67;12.90;;;7.70;99.90;;;;;;5095882;28;20016;-68
2021/05/17 01:14:08;;;;;;;20.48;13.40;;;7.60;99.90;;;;;;5095541;28;20043;-68
2021/05/17 01:16:34;;;;;;;23.00;13.35;;;7.60;99.90;;;;;;5095478;28;20154;-68
2021/05/17 01:19:00;;;;;;;22.40;14.32;;;7.60;99.90;;;;;;5095200;28;20028;-68
2021/05/17 01:21:31;;;;;;;18.73;13.10;;;7.70;99.90;;;;;;5095394;28;20024;-68
2021/05/17 01:23:57;;;;;;;20.05;12.95;;;7.70;99.90;;;;;;5095354;28;20377;-68
2021/05/17 01:26:24;;;;;;;19.25;12.35;;;7.70;99.90;;;;;;5093780;28;20027;-68
2021/05/17 01:28:54;;;;;;;23.88;14.07;;;7.80;99.90;;;;;;5095587;28;20027;-68
2021/05/17 01:31:20;;;;;;;23.60;13.13;;;7.80;99.90;;;;;;5095171;28;20024;-68
2021/05/17 01:33:47;;;;;;;21.63;13.10;;;7.80;99.90;;;;;;5094260;28;20027;-68
2021/05/17 01:36:14;;;;;;;22.40;13.38;;;7.90;99.90;;;;;;5095135;28;20020;-68
2021/05/17 01:38:44;;;;;;;18.15;12.63;;;7.90;99.90;;;;;;5094815;28;20061;-68
2021/05/17 01:41:12;;;;;;;24.67;13.73;;;7.90;99.90;;;;;;5095308;28;20024;-68
2021/05/17 01:43:42;;;;;;;23.35;13.52;;;8.00;99.90;;;;;;5076615;28;20024;-68
2021/05/17 01:46:11;;;;;;;17.85;12.70;;;8.00;99.90;;;;;;5094638;28;20024;-68
2021/05/17 01:48:40;;;;;;;17.92;12.48;;;8.00;99.90;;;;;;5094905;28;20032;-68
2021/05/17 01:51:08;;;;;;;15.93;11.75;;;8.00;99.90;;;;;;5095029;28;20020;-68
2021/05/17 01:53:37;;;;;;;18.40;12.30;;;8.00;99.90;;;;;;5095054;28;20027;-68
2021/05/17 01:56:05;;;;;;;16.65;11.63;;;8.00;99.90;;;;;;5094482;28;20374;-68
2021/05/17 01:58:31;;;;;;;18.63;11.82;;;8.00;99.90;;;;;;5093145;28;20363;-68
2021/05/17 02:01:07;;;;;;;18.80;11.93;;;7.90;99.90;;;;;;5094788;28;20032;-68
2021/05/17 02:03:35;;;;;;;19.70;12.80;;;7.90;99.90;;;;;;5093055;28;20366;-68
2021/05/17 02:06:01;;;;;;;17.63;12.30;;;7.80;99.90;;;;;;5094217;28;20607;-68
2021/05/17 02:08:27;;;;;;;18.73;12.10;;;7.80;99.90;;;;;;5094782;28;20110;-68
2021/05/17 02:10:53;;;;;;;15.98;11.38;;;7.80;99.90;;;;;;5094367;28;20035;-68
2021/05/17 02:13:20;;;;;;;19.75;13.40;;;7.80;99.90;;;;;;5094748;28;20365;-68
2021/05/17 02:15:48;;;;;;;17.45;12.57;;;7.80;99.90;;;;;;5094387;28;20012;-68
2021/05/17 02:18:14;;;;;;;23.75;13.10;;;7.80;99.90;;;;;;5093645;28;20024;-68
2021/05/17 02:20:41;;;;;;;20.38;13.85;;;7.80;99.90;;;;;;5093911;28;20032;-68
2021/05/17 02:23:10;;;;;;;23.92;13.23;;;7.70;99.90;;;;;;5094576;28;20033;-68
2021/05/17 02:25:42;;;;;;;18.60;12.75;;;7.70;99.90;;;;;;5094244;28;20499;-68
2021/05/17 02:28:08;;;;;;;17.67;11.95;;;7.70;99.90;;;;;;5094503;28;20111;-68
2021/05/17 02:30:34;;;;;;;20.25;12.90;;;7.80;99.90;;;;;;5094041;28;20099;-68
2021/05/17 02:33:00;;;;;;;20.67;12.43;;;7.70;99.90;;;;;;5094436;28;20044;-68
2021/05/17 02:35:26;;;;;;;18.38;12.05;;;7.80;99.90;;;;;;5094391;28;20425;-68
2021/05/17 02:37:51;;;;;;;18.55;11.63;;;7.80;99.90;;;;;;5094038;28;20020;-68
2021/05/17 02:40:18;;;;;;;19.52;14.02;;;7.80;99.90;;;;;;5094406;28;20438;-68
2021/05/17 02:42:46;;;;;;;22.35;12.95;;;7.80;99.90;;;;;;5093736;28;20024;-68
2021/05/17 02:45:13;;;;;;;19.23;12.35;;;7.80;99.90;;;;;;5094009;28;20020;-68
2021/05/17 02:47:39;;;;;;;22.33;13.40;;;7.90;99.90;;;;;;5093744;28;20031;-68
2021/05/17 02:50:07;;;;;;;22.83;13.93;;;8.00;99.90;;;;;;5093473;28;20492;-68
2021/05/17 02:52:34;;;;;;;17.92;12.18;;;8.00;99.90;;;;;;5093931;28;20563;-68
2021/05/17 02:55:05;;;;;;;21.58;10.88;;;8.10;99.90;;;;;;5094162;28;20027;-68
2021/05/17 02:57:57;;;;;;;17.10;10.85;;;8.20;99.90;;;;;;5093586;28;20100;-68
2021/05/17 03:00:25;;;;;;;15.85;10.35;;;8.30;99.90;;;;;;5093425;28;20051;-68
2021/05/17 03:05:40;;;;;;;19.23;11.45;;;8.40;99.90;;;;;;5112290;27;20582;-68
2021/05/17 03:08:09;;;;;;;13.70;8.82;;;8.70;99.90;;;;;;5111354;28;20408;-68
2021/05/17 03:10:36;;;;;;;14.00;8.25;;;8.80;99.90;;;;;;5111917;28;20050;-68
2021/05/17 03:13:07;;;;;;;13.63;7.57;;;8.90;99.90;;;;;;5111579;28;20495;-69
2021/05/17 03:15:33;;;;;;;13.32;7.60;;;8.90;99.90;;;;;;5111224;28;20411;-68
2021/05/17 03:17:59;;;;;;;15.73;7.60;;;9.10;99.90;;;;;;5111534;28;20047;-68
2021/05/17 03:20:26;;;;;;;12.30;7.28;;;9.10;99.90;;;;;;5111453;28;20393;-68
2021/05/17 03:22:54;;;;;;;11.43;7.03;;;9.10;99.90;;;;;;5111406;28;20055;-68
2021/05/17 03:25:23;;;;;;;13.25;7.38;;;9.20;99.90;;;;;;5111296;28;20070;-68
2021/05/17 03:27:49;;;;;;;12.13;6.55;;;9.20;99.90;;;;;;5111318;28;20073;-68
2021/05/17 03:30:16;;;;;;;25.00;7.18;;;9.30;99.90;;;;;;5111450;28;20024;-68
2021/05/17 03:32:41;;;;;;;10.40;5.93;;;9.40;99.90;;;;;;5109674;28;20016;-68
2021/05/17 03:35:07;;;;;;;10.05;6.70;;;9.40;99.90;;;;;;5110802;28;20073;-68
2021/05/17 03:37:33;;;;;;;8.52;5.82;;;9.40;99.90;;;;;;5111385;28;20024;-68
2021/05/17 03:39:58;;;;;;;12.70;6.03;;;9.50;99.90;;;;;;5111122;28;20030;-68
2021/05/17 03:42:24;;;;;;;11.90;6.90;;;9.50;99.90;;;;;;5111299;28;20479;-68
2021/05/17 03:44:49;;;;;;;13.43;6.22;;;9.40;99.90;;;;;;5110936;28;20463;-68
2021/05/17 03:47:15;;;;;;;10.05;5.93;;;9.50;99.90;;;;;;5111232;28;20419;-68
2021/05/17 03:49:40;;;;;;;10.30;6.35;;;9.50;99.90;;;;;;5111176;28;20024;-68
2021/05/17 03:52:06;;;;;;;7.78;5.38;;;9.50;99.90;;;;;;5111130;28;20078;-68
2021/05/17 03:54:31;;;;;;;8.65;5.50;;;9.60;99.90;;;;;;5111049;28;20088;-68
2021/05/17 03:56:58;;;;;;;9.73;6.18;;;9.50;99.90;;;;;;5111026;28;20028;-68
2021/05/17 03:59:24;;;;;;;11.40;5.63;;;9.50;99.90;;;;;;5110671;28;20023;-68
2021/05/17 04:01:50;;;;;;;11.48;6.07;;;9.50;99.90;;;;;;5110422;28;20107;-68
2021/05/17 04:04:17;;;;;;;9.30;5.20;;;9.50;99.90;;;;;;5110408;28;20047;-68
2021/05/17 04:06:48;;;;;;;9.45;5.72;;;9.60;99.90;;;;;;5110565;28;20373;-68
2021/05/17 04:14:45;;;;;;;12.07;6.25;;;9.60;99.90;;;;;;5109532;28;20512;-68
2021/05/17 04:17:11;;;;;;;9.60;6.05;;;9.60;99.90;;;;;;5096480;28;20028;-68
2021/05/17 04:19:36;;;;;;;11.57;5.97;;;9.60;99.90;;;;;;5096958;28;20028;-68
2021/05/17 04:22:02;;;;;;;10.63;6.30;;;9.60;99.90;;;;;;5096683;28;20024;-68
2021/05/17 04:24:28;;;;;;;11.35;6.60;;;9.70;99.90;;;;;;5096847;28;20036;-68
2021/05/17 04:26:53;;;;;;;8.88;6.50;;;9.70;99.90;;;;;;5096786;28;20457;-68
2021/05/17 04:29:19;;;;;;;9.38;6.05;;;9.70;99.90;;;;;;5096588;28;20043;-68
2021/05/17 04:31:46;;;;;;;14.38;6.65;;;9.80;99.90;;;;;;5096233;28;20016;-68
2021/05/17 04:34:11;;;;;;;10.63;6.68;;;9.80;99.90;;;;;;5096768;28;20020;-68
2021/05/17 04:36:37;;;;;;;9.80;5.85;;;9.90;99.90;;;;;;5096756;28;20034;-68
2021/05/17 04:39:04;;;;;;;11.13;6.53;;;9.90;99.90;;;;;;5096665;28;20425;-68
2021/05/17 04:41:30;;;;;;;15.02;7.00;;;9.90;99.90;;;;;;5096571;28;20107;-68
2021/05/17 04:43:55;;;;;;;8.88;6.38;;;10.00;99.90;;;;;;5096187;28;20112;-68
2021/05/17 04:46:21;;;;;;;13.90;7.45;;;10.00;99.90;;;;;;5097024;28;20027;-68
2021/05/17 04:48:49;;;;;;;9.93;6.75;;;10.00;99.90;;;;;;5095912;28;20107;-68
2021/05/17 04:51:18;;;;;;;9.60;6.57;;;10.10;99.90;;;;;;5095891;28;20049;-68
2021/05/17 04:53:44;;;;;;;8.68;6.70;;;10.10;99.90;;;;;;5096354;28;20083;-68
2021/05/17 04:56:09;;;;;;;10.65;7.40;;;10.10;99.90;;;;;;5096031;28;20039;-68
2021/05/17 04:58:35;;;;;;;10.15;6.78;;;10.10;99.90;;;;;;5096276;28;20024;-68
2021/05/17 05:01:01;;;;;;;9.80;6.65;;;10.20;99.90;;;;;;5095910;28;20055;-68
2021/05/17 05:03:26;;;;;;;13.20;7.38;;;10.30;99.90;;;;;;5095855;28;20024;-68
2021/05/17 05:05:52;;;;;;;13.75;7.03;;;10.30;99.90;;;;;;5096121;28;20020;-68
2021/05/17 05:08:17;;;;;;;12.63;7.35;;;10.40;99.90;;;;;;5095796;28;20028;-68
2021/05/17 05:10:43;;;;;;;11.05;6.78;;;10.50;99.90;;;;;;5095765;28;20024;-68
2021/05/17 05:13:08;;;;;;;11.13;6.65;;;10.50;99.90;;;;;;5095985;28;20477;-68
2021/05/17 05:15:34;;;;;;;10.00;6.25;;;10.60;99.90;;;;;;5095364;28;20028;-68
2021/05/17 05:17:59;;;;;;;9.68;6.60;;;10.60;99.90;;;;;;5095895;28;20032;-68
2021/05/17 05:20:27;;;;;;;9.65;6.30;;;10.60;99.90;;;;;;5095793;28;20028;-68
2021/05/17 05:22:52;;;;;;;10.63;6.22;;;10.60;99.90;;;;;;5094052;28;20481;-68
2021/05/17 05:25:19;;;;;;;11.60;6.88;;;10.60;99.90;;;;;;5095670;28;20075;-68
2021/05/17 05:27:48;;;;;;;14.45;7.15;;;10.60;99.90;;;;;;5094402;28;20027;-68
2021/05/17 05:30:29;;;;;;;9.13;6.78;;;10.60;99.90;;;;;;5095275;28;20023;-68
2021/05/17 05:33:08;;;;;;;9.25;6.60;;;10.70;99.90;;;;;;5095337;28;20107;-68
2021/05/17 05:35:33;;;;;;;9.63;6.45;;;10.80;99.90;;;;;;5095268;28;20028;-68
2021/05/17 05:37:59;;;;;;;12.98;6.30;;;10.80;99.90;;;;;;5095451;28;20031;-68
2021/05/17 05:40:25;;;;;;;14.55;7.55;;;10.90;99.90;;;;;;5095441;28;20032;-68
2021/05/17 05:42:50;;;;;;;9.30;6.80;;;11.00;99.90;;;;;;5095375;28;20457;-68
2021/05/17 05:45:16;;;;;;;11.98;6.13;;;11.00;99.90;;;;;;5095284;28;20041;-68
2021/05/17 05:47:41;;;;;;;9.30;6.15;;;11.20;99.90;;;;;;5095308;28;20035;-68
2021/05/17 05:50:07;;;;;;;8.90;6.18;;;11.20;99.90;;;;;;5095236;28;20028;-68
2021/05/17 05:52:33;;;;;;;10.57;5.60;;;11.40;99.90;;;;;;5095186;28;20031;-68
2021/05/17 05:55:04;;;;;;;10.88;6.25;;;11.40;99.90;;;;;;5095162;28;20099;-68
2021/05/17 05:57:36;;;;;;;7.28;5.88;;;11.40;99.90;;;;;;5094863;28;20055;-68
2021/05/17 06:00:03;;;;;;;8.25;6.22;;;11.40;99.90;;;;;;5094925;28;20024;-68
2021/05/17 06:02:28;;;;;;;7.65;5.47;;;11.40;99.90;;;;;;5095005;28;20023;-68
2021/05/17 06:04:54;;;;;;;8.80;5.55;;;11.40;99.90;;;;;;5094219;28;20044;-68
2021/05/17 06:07:19;;;;;;;10.35;5.68;;;11.40;99.90;;;;;;5094925;28;20098;-68
2021/05/17 06:09:45;;;;;;;7.53;5.82;;;11.40;99.90;;;;;;5094817;28;20057;-68
2021/05/17 06:12:11;;;;;;;11.20;6.05;;;11.30;99.90;;;;;;5093517;28;20020;-68
2021/05/17 06:14:37;;;;;;;8.88;6.97;;;11.30;99.90;;;;;;5094733;28;20028;-68
2021/05/17 06:17:03;;;;;;;8.65;5.93;;;11.20;99.90;;;;;;5094592;28;20346;-68
2021/05/17 06:19:28;;;;;;;10.73;5.95;;;11.30;99.90;;;;;;5094642;28;20080;-68
2021/05/17 06:21:55;;;;;;;8.85;6.25;;;11.20;99.90;;;;;;5094388;28;20154;-68
2021/05/17 06:24:21;;;;;;;9.65;6.20;;;11.30;99.90;;;;;;5094568;28;20058;-68
2021/05/17 06:26:47;;;;;;;9.07;5.63;;;11.30;99.90;;;;;;5094556;28;20024;-68
2021/05/17 06:29:13;;;;;;;11.57;7.13;;;11.30;99.90;;;;;;5094247;28;20020;-68
2021/05/17 06:31:44;;;;;;;11.57;6.78;;;11.30;99.90;;;;;;5093927;28;20016;-68
2021/05/17 06:34:09;;;;;;;11.02;6.70;;;11.40;99.90;;;;;;5094371;28;20035;-68
2021/05/17 06:36:35;;;;;;;8.68;6.65;;;11.50;99.90;;;;;;5094418;28;20028;-68
2021/05/17 06:39:02;;;;;;;8.88;6.53;;;11.60;99.90;;;;;;5092572;28;20020;-68
2021/05/17 06:41:30;;;;;;;10.93;6.57;;;11.90;99.90;;;;;;5094028;28;20081;-69
2021/05/17 06:43:56;;;;;;;7.15;6.10;;;12.10;99.90;;;;;;5094208;28;20028;-68
2021/05/17 06:46:22;;;;;;;7.22;5.57;;;12.40;99.90;;;;;;5093092;28;20024;-69
2021/05/17 06:48:48;;;;;;;9.30;5.80;;;12.50;99.90;;;;;;5085444;28;20056;-69
2021/05/17 06:51:16;;;;;;;8.70;5.55;;;12.50;99.90;;;;;;5090267;28;20423;-68
2021/05/17 06:53:43;;;;;;;7.43;5.43;;;12.70;99.90;;;;;;5092352;28;20469;-68
2021/05/17 06:56:17;;;;;;;7.18;5.10;;;12.80;99.90;;;;;;5092514;28;20024;-69
2021/05/17 06:58:59;;;;;;;6.95;4.80;;;12.90;99.90;;;;;;5092426;28;20024;-68
2021/05/17 07:01:27;;;;;;;7.05;5.22;;;12.80;99.90;;;;;;5092680;28;20031;-68
2021/05/17 07:03:53;;;;;;;7.53;4.35;;;12.70;99.90;;;;;;5092830;28;20043;-69
2021/05/17 07:06:23;;;;;;;6.32;4.75;;;12.80;99.90;;;;;;5093747;28;20036;-68
2021/05/17 07:11:45;;;;;;;6.68;4.53;;;13.10;99.90;;;;;;5092005;28;20028;-69
2021/05/17 07:14:11;;;;;;;8.55;4.70;;;13.40;99.90;;;;;;5092342;28;20469;-69
2021/05/17 07:16:37;;;;;;;7.55;4.63;;;13.60;99.90;;;;;;5092181;28;20047;-69
2021/05/17 07:19:03;;;;;;;6.60;3.95;;;13.80;99.90;;;;;;5092052;28;20491;-69
2021/05/17 07:24:14;;;;;;;7.45;4.15;;;13.60;99.90;;;;;;5088819;28;20101;-69
2021/05/17 07:26:40;;;;;;;7.68;3.92;;;13.30;99.90;;;;;;5092871;28;20480;-69
2021/05/17 07:29:07;;;;;;;9.30;4.10;;;13.10;99.90;;;;;;5092984;28;20035;-69
2021/05/17 07:31:33;;;;;;;11.45;4.30;;;12.90;99.90;;;;;;5092596;28;20095;-68
2021/05/17 07:33:59;;;;;;;9.18;4.35;;;12.80;99.90;;;;;;5092747;28;20070;-68
2021/05/17 07:36:24;;;;;;;7.10;3.95;;;12.60;99.90;;;;;;5092833;28;20035;-69
2021/05/17 07:38:51;;;;;;;8.05;3.33;;;12.60;99.90;;;;;;5091251;28;20028;-68
2021/05/17 07:41:17;;;;;;;3.90;2.72;;;12.30;99.90;;;;;;5093646;28;20574;-68
2021/05/17 07:43:43;;;;;;;6.30;3.25;;;12.40;99.90;;;;;;5092127;28;20024;-68
2021/05/17 07:46:08;;;;;;;8.90;3.17;;;12.60;99.90;;;;;;5091042;28;20020;-69
2021/05/17 07:49:01;;;;;;;7.20;3.53;;;13.30;99.90;;;;;;5092651;28;20023;-69
2021/05/17 07:51:20;;;;;;;6.50;3.45;;;14.00;99.90;;;;;;5093678;28;20032;-69
2021/05/17 07:53:45;;;;;;;5.45;2.67;;;15.00;99.90;;;;;;5096514;28;20024;-69
2021/05/17 07:56:13;;;;;;;5.43;2.85;;;15.10;99.90;;;;;;5096211;28;20110;-69
2021/05/17 07:58:38;;;;;;;5.82;2.90;;;14.90;99.90;;;;;;5096671;28;20032;-69
2021/05/17 08:01:04;;;;;;;4.90;2.65;;;14.70;99.90;;;;;;5094941;28;20036;-69
2021/05/17 08:03:29;;;;;;;5.10;2.97;;;14.50;99.90;;;;;;5096025;28;20031;-69
2021/05/17 08:05:56;;;;;;;5.78;2.72;;;14.40;99.90;;;;;;5096211;28;20039;-69
2021/05/17 08:08:21;;;;;;;6.05;2.67;;;14.80;99.90;;;;;;5096206;28;20032;-69
2021/05/17 08:10:47;;;;;;;4.15;2.25;;;14.80;99.90;;;;;;5096217;28;20024;-69
2021/05/17 08:13:12;;;;;;;7.03;2.90;;;14.50;99.90;;;;;;5096088;28;20465;-69
2021/05/17 08:15:38;;;;;;;6.15;2.80;;;14.40;99.90;;;;;;5095741;28;20095;-69
2021/05/17 08:18:05;;;;;;;6.55;2.58;;;14.10;99.90;;;;;;5096544;28;20104;-69
2021/05/17 08:20:31;;;;;;;7.45;2.97;;;14.20;99.90;;;;;;5095668;28;20437;-69
2021/05/17 08:22:56;;;;;;;5.00;2.80;;;14.20;99.90;;;;;;5094799;28;20115;-69
2021/05/17 08:25:23;;;;;;;5.40;2.60;;;14.00;99.90;;;;;;5095883;28;20036;-69
2021/05/17 08:27:48;;;;;;;7.22;2.33;;;13.80;99.90;;;;;;5095554;28;20050;-69
2021/05/17 08:30:14;;;;;;;6.63;2.58;;;13.60;99.90;;;;;;5095215;28;20020;-69
2021/05/17 08:32:40;;;;;;;6.65;2.45;;;13.60;99.90;;;;;;5094359;28;20835;-68
2021/05/17 08:35:06;;;;;;;8.18;2.50;;;13.70;99.90;;;;;;5095353;28;20035;-69
2021/05/17 08:37:32;;;;;;;5.93;2.40;;;14.30;99.90;;;;;;5095847;28;20024;-69
2021/05/17 08:39:57;;;;;;;7.80;2.63;;;14.50;99.90;;;;;;5093328;28;20039;-69
2021/05/17 08:42:26;;;;;;;7.95;2.42;;;14.70;99.90;;;;;;5094166;28;20039;-69
2021/05/17 08:44:52;;;;;;;10.05;2.58;;;14.50;99.90;;;;;;5095333;28;20016;-69
2021/05/17 08:47:18;;;;;;;4.22;2.20;;;14.40;99.90;;;;;;5095260;28;20031;-69
2021/05/17 08:49:44;;;;;;;7.20;2.40;;;14.20;99.90;;;;;;5095682;28;20016;-69
2021/05/17 08:52:10;;;;;;;5.53;2.00;;;14.20;99.90;;;;;;5095063;28;20028;-69
2021/05/17 08:54:36;;;;;;;12.60;2.85;;;14.30;99.90;;;;;;5093520;28;20051;-68
2021/05/17 08:57:02;;;;;;;6.50;2.22;;;14.60;99.90;;;;;;5076088;28;20032;-69
2021/05/17 08:59:28;;;;;;;5.57;2.20;;;15.20;99.90;;;;;;5092907;28;20024;-69
2021/05/17 09:01:54;;;;;;;3.50;1.80;;;15.50;99.90;;;;;;5094397;28;20423;-69
2021/05/17 09:04:19;;;;;;;8.10;2.10;;;16.20;99.90;;;;;;5094601;28;20063;-69
2021/05/17 09:06:49;;;;;;;4.72;2.35;;;16.00;99.90;;;;;;5094313;28;20024;-69
2021/05/17 09:09:32;;;;;;;2.63;1.95;;;15.50;99.90;;;;;;5094483;28;20508;-69
2021/05/17 09:12:01;;;;;;;8.18;2.88;;;14.90;99.90;;;;;;5094628;28;20050;-69
2021/05/17 09:14:28;;;;;;;5.70;2.22;;;14.70;99.90;;;;;;5094895;28;20431;-69
2021/05/17 09:16:57;;;;;;;5.22;2.88;;;14.60;99.90;;;;;;5095037;28;20036;-69
2021/05/17 09:19:25;;;;;;;8.20;3.10;;;14.30;99.90;;;;;;5094061;28;20377;-69
2021/05/17 09:22:14;;;;;;;4.40;2.95;;;14.30;99.90;;;;;;5090869;28;20071;-69
2021/05/17 09:24:53;;;;;;;4.82;3.45;;;14.40;99.90;;;;;;5091729;28;20032;-69
2021/05/17 09:27:28;;;;;;;7.40;3.33;;;15.00;99.90;;;;;;5094700;28;20457;-69
2021/05/17 09:29:55;;;;;;;5.00;2.40;;;16.00;99.90;;;;;;5094336;28;20028;-69
2021/05/17 09:32:30;;;;;;;3.08;2.33;;;17.40;99.90;;;;;;5094255;28;20107;-70
2021/05/17 09:35:00;;;;;;;7.10;2.15;;;18.30;99.90;;;;;;5093851;28;20111;-69
2021/05/17 09:37:27;;;;;;;3.47;1.83;;;18.60;99.90;;;;;;5093859;28;20107;-69
2021/05/17 09:39:54;;;;;;;4.30;2.28;;;18.20;99.90;;;;;;5093633;28;20035;-69
2021/05/17 09:42:21;;;;;;;3.65;2.20;;;17.10;99.90;;;;;;5093911;28;20548;-69
2021/05/17 09:44:48;;;;;;;5.25;2.53;;;16.50;99.90;;;;;;5093092;28;20149;-69
2021/05/17 09:47:19;;;;;;;5.57;2.50;;;16.50;99.90;;;;;;5093870;28;20031;-69
2021/05/17 09:49:49;;;;;;;5.50;2.58;;;16.00;99.90;;;;;;5094628;28;20028;-69
2021/05/17 09:52:34;;;;;;;6.57;2.60;;;15.80;99.90;;;;;;5093444;28;20020;-69
2021/05/17 09:55:08;;;;;;;6.22;2.88;;;15.70;99.90;;;;;;5092191;28;20089;-69
2021/05/17 09:57:37;;;;;;;4.88;2.50;;;15.50;99.90;;;;;;5092534;28;20118;-69
2021/05/17 10:02:50;;;;;;;8.55;2.90;;;15.50;99.90;;;;;;5070244;28;20369;-70
2021/05/17 10:05:33;;;;;;;4.68;2.55;;;16.30;99.90;;;;;;5066487;28;20048;-69
2021/05/17 10:08:03;;;;;;;6.07;2.70;;;17.40;99.90;;;;;;5060367;28;20033;-67
2021/05/17 10:10:29;;;;;;;4.80;2.55;;;17.30;99.90;;;;;;5056794;28;20030;-70
2021/05/17 10:12:58;;;;;;;5.63;2.25;;;17.40;99.90;;;;;;5067262;28;20021;-70
2021/05/17 10:15:26;;;;;;;5.25;2.30;;;17.40;99.90;;;;;;5069369;28;20100;-70
2021/05/17 10:17:52;;;;;;;4.03;2.03;;;18.40;99.90;;;;;;5063707;28;20021;-68
2021/05/17 10:20:21;;;;;;;4.35;2.13;;;18.00;99.90;;;;;;5052049;28;20033;-67
2021/05/17 10:22:48;;;;;;;3.25;2.30;;;17.30;99.90;;;;;;5051578;28;20053;-70
2021/05/17 10:25:23;;;;;;;2.40;2.15;;;16.90;99.90;;;;;;5050269;28;20026;-70
2021/05/17 10:27:51;;;;;;;4.35;2.47;;;16.40;99.90;;;;;;5054688;28;20056;-70
2021/05/17 10:30:37;;;;;;;3.85;2.50;;;16.00;99.90;;;;;;5059789;28;20070;-70
2021/05/17 10:33:05;;;;;;;4.75;2.13;;;15.60;99.90;;;;;;5047585;28;20017;-70
2021/05/17 10:35:35;;;;;;;5.25;2.30;;;15.60;99.90;;;;;;5047698;28;20356;-70
2021/05/17 10:38:26;;;;;;;3.40;2.75;;;15.60;99.90;;;;;;5049607;28;20060;-70
2021/05/17 10:41:17;;;;;;;3.95;2.90;;;15.90;99.90;;;;;;5048465;28;20437;-70
2021/05/17 10:44:14;;;;;;;5.55;2.47;;;16.20;99.90;;;;;;5048730;28;20430;-70
2021/05/17 10:46:51;;;;;;;3.35;2.08;;;16.00;99.90;;;;;;5049339;28;20029;-70
2021/05/17 10:49:21;;;;;;;3.03;1.80;;;16.40;99.90;;;;;;5049690;28;20033;-70
2021/05/17 10:51:48;;;;;;;3.70;2.28;;;16.80;99.90;;;;;;5048520;28;20056;-67
2021/05/17 10:54:31;;;;;;;2.42;1.95;;;16.80;99.90;;;;;;5051202;28;20475;-69
2021/05/17 10:57:01;;;;;;;2.40;2.00;;;16.80;99.90;;;;;;5061235;28;20025;-70
2021/05/17 11:02:25;;;;;;;2.17;1.98;;;17.00;99.90;;;;;;5048251;28;20053;-70
2021/05/17 11:04:56;;;;;;;2.72;1.30;;;17.60;99.90;;;;;;5048719;28;20074;-70
2021/05/17 11:07:43;;;;;;;1.70;1.42;;;17.40;99.90;;;;;;5048816;28;20100;-70
2021/05/17 11:10:31;;;;;;;2.10;1.35;;;17.40;99.90;;;;;;5048653;28;20152;-70
2021/05/17 11:13:01;;;;;;;1.88;1.20;;;17.70;99.90;;;;;;5047604;28;20036;-70
2021/05/17 11:15:48;;;;;;;2.53;1.48;;;17.90;99.90;;;;;;5036232;28;20112;-68
2021/05/17 11:20:52;;;;;;;2.28;1.60;;;18.00;99.90;;;;;;5109493;27;20431;-68
2021/05/17 11:26:13;;;;;;;2.20;1.48;;;17.70;99.90;;;;;;5110597;27;20420;-70
2021/05/17 11:28:45;;;;;;;3.63;1.80;;;18.20;99.90;;;;;;5109593;28;20526;-67
2021/05/17 11:31:35;;;;;;;3.63;1.30;;;18.00;99.90;;;;;;5109907;28;20107;-70
2021/05/17 11:34:06;;;;;;;1.23;1.05;;;18.30;99.90;;;;;;5110150;28;20107;-69
2021/05/17 11:39:25;;;;;;;2.47;0.65;;;18.50;99.90;;;;;;5110514;27;20367;-70
2021/05/17 11:44:36;;;;;;;2.17;1.30;;;18.30;99.90;;;;;;5109967;27;20363;-70
2021/05/17 11:47:07;;;;;;;1.92;0.73;;;18.40;99.90;;;;;;5110225;28;20023;-70
2021/05/17 11:49:34;;;;;;;3.30;1.23;;;18.40;99.90;;;;;;5110141;28;20020;-70
2021/05/17 11:52:10;;;;;;;3.17;1.02;;;18.10;99.90;;;;;;5109380;28;20022;-69
2021/05/17 11:54:42;;;;;;;3.60;1.30;;;18.20;99.90;;;;;;5110008;28;20024;-70
2021/05/17 11:57:09;;;;;;;3.55;1.15;;;18.40;99.90;;;;;;5110042;28;20039;-70
2021/05/17 11:59:35;;;;;;;3.50;1.00;;;18.20;99.90;;;;;;5108766;28;20020;-70
2021/05/17 12:02:05;;;;;;;2.83;1.20;;;18.20;99.90;;;;;;5109871;28;20488;-70
2021/05/17 12:04:34;;;;;;;2.63;1.30;;;18.30;99.90;;;;;;5109804;28;20091;-70
2021/05/17 12:07:06;;;;;;;6.05;1.33;;;18.40;99.90;;;;;;5109830;28;20467;-70
2021/05/17 12:09:35;;;;;;;2.92;1.30;;;18.90;99.90;;;;;;5109358;28;20054;-70
2021/05/17 12:12:04;;;;;;;1.77;1.15;;;18.60;99.90;;;;;;5108436;28;20024;-70
2021/05/17 12:14:30;;;;;;;3.22;1.10;;;18.00;99.90;;;;;;5104892;28;20044;-70
2021/05/17 12:17:21;;;;;;;3.67;0.75;;;17.60;99.90;;;;;;5110118;28;20484;-70
2021/05/17 12:19:49;;;;;;;6.93;0.85;;;16.10;99.90;;;;;;5108608;28;20031;-70
2021/05/17 12:22:24;;;;;;;1.45;0.30;;;15.40;99.90;;;;;;5109512;28;20029;-70
2021/05/17 12:24:51;;;;;;;0.57;0.52;;;14.60;99.90;;;;;;5108012;28;20030;-69
2021/05/17 12:27:20;;;;;;;1.52;0.77;;;14.00;99.90;;;;;;5110516;28;20111;-69
2021/05/17 12:32:44;;;;;;;2.05;0.90;;;13.60;99.90;;;;;;5070094;28;20935;-70
2021/05/17 12:35:14;;;;;;;4.15;1.00;;;13.50;99.90;;;;;;5065273;28;20509;-69
2021/05/17 12:37:43;;;;;;;1.42;0.60;;;13.50;99.90;;;;;;5049643;28;20447;-69
2021/05/17 12:40:32;;;;;;;2.97;1.17;;;13.60;99.90;;;;;;5058036;28;20018;-69
2021/05/17 12:45:56;;;;;;;1.90;0.63;;;13.80;99.90;;;;;;5111129;27;20401;-69
2021/05/17 12:51:12;;;;;;;1.10;1.00;;;14.10;99.90;;;;;;5089278;27;20441;-69
2021/05/17 12:53:38;;;;;;;2.03;1.30;;;15.40;99.90;;;;;;5080655;28;20082;-69
2021/05/17 12:56:03;;;;;;;1.02;0.90;;;15.90;99.90;;;;;;5088813;28;20477;-69
2021/05/17 13:01:12;;;;;;;3.00;1.20;;;15.70;99.90;;;;;;5108449;27;20859;-69
2021/05/17 13:03:46;;;;;;;1.92;1.23;;;15.70;99.90;;;;;;5108719;28;20035;-69
2021/05/17 13:06:28;;;;;;;1.67;1.13;;;15.20;99.90;;;;;;5110641;28;20020;-69
2021/05/17 13:09:02;;;;;;;3.05;1.30;;;15.20;99.90;;;;;;5108237;28;20042;-69
2021/05/17 13:11:31;;;;;;;1.25;1.02;;;15.20;99.90;;;;;;5090200;28;20040;-70
2021/05/17 13:14:04;;;;;;;2.08;1.10;;;15.40;99.90;;;;;;5107697;28;20032;-69
2021/05/17 13:16:34;;;;;;;1.27;0.80;;;15.50;99.90;;;;;;5111149;28;20401;-69
2021/05/17 13:22:47;;;;;;;1.27;0.85;;;15.50;99.90;;;;;;5091390;28;20121;-69
2021/05/17 13:30:57;;;;;;;1.92;0.80;;;15.60;99.90;;;;;;5110418;28;20031;-69
2021/05/17 13:33:40;;;;;;;2.38;0.80;;;15.70;99.90;;;;;;5100248;28;20489;-70
2021/05/17 13:36:17;;;;;;;1.27;0.70;;;16.10;99.90;;;;;;5087568;28;20073;-70
2021/05/17 13:38:48;;;;;;;1.67;1.10;;;16.20;99.90;;;;;;5088652;28;20099;-69
2021/05/17 13:41:14;;;;;;;1.80;1.13;;;16.30;99.90;;;;;;5089096;28;20020;-70